sensor_id;sensor_type;location;lat;lon;timestamp;temperature;humidity
9410;DHT22;4744;52.576;13.568;2023-05-02T00:00:25;11.70;1.00
9410;DHT22;4744;52.576;13.568;2023-05-02T00:02:54;11.60;1.00
9410;DHT22;4744;52.576;13.568;2023-05-02T00:05:21;11.60;1.00
9410;DHT22;4744;52.576;13.568;2023-05-02T00:07:48;11.60;1.00
9410;DHT22;4744;52.576;13.568;2023-05-02T00:10:15;11.50;1.00
9410;DHT22;4744;52.576;13.568;2023-05-02T00:12:42;11.50;1.00
9410;DHT22;4744;52.576;13.568;2023-05-02T00:15:09;11.50;1.00
9410;DHT22;4744;52.576;13.568;2023-05-02T00:17:38;11.40;1.00
9410;DHT22;4744;52.576;13.568;2023-05-02T00:20:08;11.40;1.00
9410;DHT22;4744;52.576;13.568;2023-05-02T00:22:35;11.40;1.00
9410;DHT22;4744;52.576;13.568;2023-05-02T00:25:02;11.40;1.00
9410;DHT22;4744;52.576;13.568;2023-05-02T00:27:29;11.30;1.00
9410;DHT22;4744;52.576;13.568;2023-05-02T00:29:57;11.30;1.00
9410;DHT22;4744;52.576;13.568;2023-05-02T00:32:25;11.30;1.00
9410;DHT22;4744;52.576;13.568;2023-05-02T00:34:52;11.20;1.00
9410;DHT22;4744;52.576;13.568;2023-05-02T00:37:20;11.20;1.00
9410;DHT22;4744;52.576;13.568;2023-05-02T00:39:51;11.10;1.00
9410;DHT22;4744;52.576;13.568;2023-05-02T00:42:18;11.00;1.00
9410;DHT22;4744;52.576;13.568;2023-05-02T00:44:45;11.00;1.00
9410;DHT22;4744;52.576;13.568;2023-05-02T00:47:13;11.00;1.00
9410;DHT22;4744;52.576;13.568;2023-05-02T00:49:40;10.90;1.00
9410;DHT22;4744;52.576;13.568;2023-05-02T00:52:07;10.80;1.00
9410;DHT22;4744;52.576;13.568;2023-05-02T00:54:36;10.80;1.00
9410;DHT22;4744;52.576;13.568;2023-05-02T00:57:04;10.70;1.00
9410;DHT22;4744;52.576;13.568;2023-05-02T00:59:31;10.60;1.00
9410;DHT22;4744;52.576;13.568;2023-05-02T01:02:05;10.60;1.00
9410;DHT22;4744;52.576;13.568;2023-05-02T01:04:41;10.50;1.00
9410;DHT22;4744;52.576;13.568;2023-05-02T01:07:21;10.40;1.00
9410;DHT22;4744;52.576;13.568;2023-05-02T01:09:59;10.30;1.00
9410;DHT22;4744;52.576;13.568;2023-05-02T01:12:31;10.20;1.00
9410;DHT22;4744;52.576;13.568;2023-05-02T01:15:01;10.20;1.00
9410;DHT22;4744;52.576;13.568;2023-05-02T01:17:32;10.30;1.00
9410;DHT22;4744;52.576;13.568;2023-05-02T01:20:04;10.30;1.00
9410;DHT22;4744;52.576;13.568;2023-05-02T01:22:31;10.30;1.00
9410;DHT22;4744;52.576;13.568;2023-05-02T01:25:06;10.40;1.00
9410;DHT22;4744;52.576;13.568;2023-05-02T01:27:45;10.40;1.00
9410;DHT22;4744;52.576;13.568;2023-05-02T01:30:17;10.40;1.00
9410;DHT22;4744;52.576;13.568;2023-05-02T01:32:46;10.50;1.00
9410;DHT22;4744;52.576;13.568;2023-05-02T01:35:14;10.50;1.00
9410;DHT22;4744;52.576;13.568;2023-05-02T01:37:42;10.50;1.00
9410;DHT22;4744;52.576;13.568;2023-05-02T01:40:12;10.60;1.00
9410;DHT22;4744;52.576;13.568;2023-05-02T01:42:40;10.60;1.00
9410;DHT22;4744;52.576;13.568;2023-05-02T01:45:10;10.70;1.00
9410;DHT22;4744;52.576;13.568;2023-05-02T01:47:40;10.70;1.00
9410;DHT22;4744;52.576;13.568;2023-05-02T01:50:11;10.70;1.00
9410;DHT22;4744;52.576;13.568;2023-05-02T01:52:41;10.80;1.00
9410;DHT22;4744;52.576;13.568;2023-05-02T01:55:11;10.80;1.00
9410;DHT22;4744;52.576;13.568;2023-05-02T01:57:40;10.80;1.00
9410;DHT22;4744;52.576;13.568;2023-05-02T02:00:09;10.90;1.00
9410;DHT22;4744;52.576;13.568;2023-05-02T02:02:38;10.90;1.00
9410;DHT22;4744;52.576;13.568;2023-05-02T02:05:07;10.90;1.00
9410;DHT22;4744;52.576;13.568;2023-05-02T02:07:35;10.90;1.00
9410;DHT22;4744;52.576;13.568;2023-05-02T02:10:02;10.90;1.00
9410;DHT22;4744;52.576;13.568;2023-05-02T02:12:34;10.90;1.00
9410;DHT22;4744;52.576;13.568;2023-05-02T02:15:08;11.00;1.00
9410;DHT22;4744;52.576;13.568;2023-05-02T02:17:37;11.00;1.00
9410;DHT22;4744;52.576;13.568;2023-05-02T02:20:09;11.00;1.00
9410;DHT22;4744;52.576;13.568;2023-05-02T02:22:39;11.00;1.00
9410;DHT22;4744;52.576;13.568;2023-05-02T02:25:09;10.90;1.00
9410;DHT22;4744;52.576;13.568;2023-05-02T02:27:37;10.90;1.00
9410;DHT22;4744;52.576;13.568;2023-05-02T02:30:05;10.90;1.00
9410;DHT22;4744;52.576;13.568;2023-05-02T02:32:32;10.90;1.00
9410;DHT22;4744;52.576;13.568;2023-05-02T02:34:59;10.80;1.00
9410;DHT22;4744;52.576;13.568;2023-05-02T02:37:30;10.80;1.00
9410;DHT22;4744;52.576;13.568;2023-05-02T02:40:04;10.80;1.00
9410;DHT22;4744;52.576;13.568;2023-05-02T02:42:36;10.80;1.00
9410;DHT22;4744;52.576;13.568;2023-05-02T02:45:15;10.70;1.00
9410;DHT22;4744;52.576;13.568;2023-05-02T02:47:49;10.60;1.00
9410;DHT22;4744;52.576;13.568;2023-05-02T02:50:22;10.60;1.00
9410;DHT22;4744;52.576;13.568;2023-05-02T02:52:59;10.60;1.00
9410;DHT22;4744;52.576;13.568;2023-05-02T02:55:34;10.50;1.00
9410;DHT22;4744;52.576;13.568;2023-05-02T02:58:10;10.50;1.00
9410;DHT22;4744;52.576;13.568;2023-05-02T03:00:42;10.40;1.00
9410;DHT22;4744;52.576;13.568;2023-05-02T03:03:11;10.40;1.00
9410;DHT22;4744;52.576;13.568;2023-05-02T03:05:40;10.30;1.00
9410;DHT22;4744;52.576;13.568;2023-05-02T03:08:09;10.30;1.00
9410;DHT22;4744;52.576;13.568;2023-05-02T03:10:36;10.20;1.00
9410;DHT22;4744;52.576;13.568;2023-05-02T03:13:02;10.20;1.00
9410;DHT22;4744;52.576;13.568;2023-05-02T03:16:11;10.20;1.00
9410;DHT22;4744;52.576;13.568;2023-05-02T03:18:45;10.10;1.00
9410;DHT22;4744;52.576;13.568;2023-05-02T03:21:11;10.10;1.00
9410;DHT22;4744;52.576;13.568;2023-05-02T03:23:40;10.00;1.00
9410;DHT22;4744;52.576;13.568;2023-05-02T03:26:06;10.00;1.00
9410;DHT22;4744;52.576;13.568;2023-05-02T03:28:33;10.00;1.00
9410;DHT22;4744;52.576;13.568;2023-05-02T03:31:00;9.90;1.00
9410;DHT22;4744;52.576;13.568;2023-05-02T03:33:28;9.90;1.00
9410;DHT22;4744;52.576;13.568;2023-05-02T03:35:55;9.90;1.00
9410;DHT22;4744;52.576;13.568;2023-05-02T03:38:21;9.80;1.00
9410;DHT22;4744;52.576;13.568;2023-05-02T03:40:50;9.80;1.00
9410;DHT22;4744;52.576;13.568;2023-05-02T03:43:16;9.80;1.00
9410;DHT22;4744;52.576;13.568;2023-05-02T03:45:43;9.70;1.00
9410;DHT22;4744;52.576;13.568;2023-05-02T03:48:10;9.70;1.00
9410;DHT22;4744;52.576;13.568;2023-05-02T03:50:37;9.70;1.00
9410;DHT22;4744;52.576;13.568;2023-05-02T03:53:04;9.70;1.00
9410;DHT22;4744;52.576;13.568;2023-05-02T03:55:32;9.60;1.00
9410;DHT22;4744;52.576;13.568;2023-05-02T03:58:05;9.60;1.00
9410;DHT22;4744;52.576;13.568;2023-05-02T04:00:32;9.60;1.00
9410;DHT22;4744;52.576;13.568;2023-05-02T04:03:00;9.60;1.00
9410;DHT22;4744;52.576;13.568;2023-05-02T04:05:27;9.60;1.00
9410;DHT22;4744;52.576;13.568;2023-05-02T04:07:55;9.60;1.00
9410;DHT22;4744;52.576;13.568;2023-05-02T04:10:22;9.60;1.00
9410;DHT22;4744;52.576;13.568;2023-05-02T04:12:49;9.60;1.00
9410;DHT22;4744;52.576;13.568;2023-05-02T04:15:17;9.60;1.00
9410;DHT22;4744;52.576;13.568;2023-05-02T04:17:44;9.60;1.00
9410;DHT22;4744;52.576;13.568;2023-05-02T04:20:11;9.60;1.00
9410;DHT22;4744;52.576;13.568;2023-05-02T04:22:38;9.60;1.00
9410;DHT22;4744;52.576;13.568;2023-05-02T04:25:05;9.60;1.00
9410;DHT22;4744;52.576;13.568;2023-05-02T04:27:32;9.70;1.00
9410;DHT22;4744;52.576;13.568;2023-05-02T04:29:59;9.70;1.00
9410;DHT22;4744;52.576;13.568;2023-05-02T04:32:27;9.70;1.00
9410;DHT22;4744;52.576;13.568;2023-05-02T04:34:54;9.70;1.00
9410;DHT22;4744;52.576;13.568;2023-05-02T04:37:21;9.70;1.00
9410;DHT22;4744;52.576;13.568;2023-05-02T04:39:48;9.80;1.00
9410;DHT22;4744;52.576;13.568;2023-05-02T04:42:15;9.80;1.00
9410;DHT22;4744;52.576;13.568;2023-05-02T04:44:42;9.80;1.00
9410;DHT22;4744;52.576;13.568;2023-05-02T04:47:09;9.80;1.00
9410;DHT22;4744;52.576;13.568;2023-05-02T04:49:37;9.90;1.00
9410;DHT22;4744;52.576;13.568;2023-05-02T04:52:04;9.90;1.00
9410;DHT22;4744;52.576;13.568;2023-05-02T04:54:31;10.00;1.00
9410;DHT22;4744;52.576;13.568;2023-05-02T04:56:58;10.00;1.00
9410;DHT22;4744;52.576;13.568;2023-05-02T04:59:28;10.10;1.00
9410;DHT22;4744;52.576;13.568;2023-05-02T05:01:55;10.20;1.00
9410;DHT22;4744;52.576;13.568;2023-05-02T05:04:21;10.30;1.00
9410;DHT22;4744;52.576;13.568;2023-05-02T05:06:50;10.40;1.00
9410;DHT22;4744;52.576;13.568;2023-05-02T05:09:17;10.50;1.00
9410;DHT22;4744;52.576;13.568;2023-05-02T05:11:43;10.60;1.00
9410;DHT22;4744;52.576;13.568;2023-05-02T05:14:11;10.70;1.00
9410;DHT22;4744;52.576;13.568;2023-05-02T05:16:38;10.70;1.00
9410;DHT22;4744;52.576;13.568;2023-05-02T05:19:04;10.80;1.00
9410;DHT22;4744;52.576;13.568;2023-05-02T05:21:31;10.90;1.00
9410;DHT22;4744;52.576;13.568;2023-05-02T05:23:59;10.90;1.00
9410;DHT22;4744;52.576;13.568;2023-05-02T05:26:26;11.10;1.00
9410;DHT22;4744;52.576;13.568;2023-05-02T05:28:53;11.10;1.00
9410;DHT22;4744;52.576;13.568;2023-05-02T05:31:20;11.20;1.00
9410;DHT22;4744;52.576;13.568;2023-05-02T05:33:48;11.20;1.00
9410;DHT22;4744;52.576;13.568;2023-05-02T05:36:15;11.30;1.00
9410;DHT22;4744;52.576;13.568;2023-05-02T05:38:42;11.30;1.00
9410;DHT22;4744;52.576;13.568;2023-05-02T05:41:10;11.40;1.00
9410;DHT22;4744;52.576;13.568;2023-05-02T05:43:37;11.40;1.00
9410;DHT22;4744;52.576;13.568;2023-05-02T05:46:04;11.50;1.00
9410;DHT22;4744;52.576;13.568;2023-05-02T05:48:31;11.50;1.00
9410;DHT22;4744;52.576;13.568;2023-05-02T05:51:02;11.60;1.00
9410;DHT22;4744;52.576;13.568;2023-05-02T05:53:29;11.70;1.00
9410;DHT22;4744;52.576;13.568;2023-05-02T05:55:56;11.80;1.00
9410;DHT22;4744;52.576;13.568;2023-05-02T05:58:25;11.80;1.00
9410;DHT22;4744;52.576;13.568;2023-05-02T06:00:52;12.00;1.00
9410;DHT22;4744;52.576;13.568;2023-05-02T06:03:19;12.00;1.00
9410;DHT22;4744;52.576;13.568;2023-05-02T06:05:46;12.10;1.00
9410;DHT22;4744;52.576;13.568;2023-05-02T06:08:13;12.20;1.00
9410;DHT22;4744;52.576;13.568;2023-05-02T06:10:40;12.30;1.00
9410;DHT22;4744;52.576;13.568;2023-05-02T06:13:07;12.30;1.00
9410;DHT22;4744;52.576;13.568;2023-05-02T06:15:35;12.40;1.00
9410;DHT22;4744;52.576;13.568;2023-05-02T06:18:02;12.50;1.00
9410;DHT22;4744;52.576;13.568;2023-05-02T06:20:29;12.50;1.00
9410;DHT22;4744;52.576;13.568;2023-05-02T06:22:56;12.60;1.00
9410;DHT22;4744;52.576;13.568;2023-05-02T06:25:22;12.60;1.00
9410;DHT22;4744;52.576;13.568;2023-05-02T06:27:49;12.70;1.00
9410;DHT22;4744;52.576;13.568;2023-05-02T06:30:16;12.80;1.00
9410;DHT22;4744;52.576;13.568;2023-05-02T06:32:45;12.90;1.00
9410;DHT22;4744;52.576;13.568;2023-05-02T06:35:11;12.90;1.00
9410;DHT22;4744;52.576;13.568;2023-05-02T06:37:38;13.00;1.00
9410;DHT22;4744;52.576;13.568;2023-05-02T06:40:06;13.10;1.00
9410;DHT22;4744;52.576;13.568;2023-05-02T06:42:33;13.10;1.00
9410;DHT22;4744;52.576;13.568;2023-05-02T06:45:00;13.20;1.00
9410;DHT22;4744;52.576;13.568;2023-05-02T06:47:27;13.30;1.00
9410;DHT22;4744;52.576;13.568;2023-05-02T06:49:55;13.40;1.00
9410;DHT22;4744;52.576;13.568;2023-05-02T06:52:22;13.50;1.00
9410;DHT22;4744;52.576;13.568;2023-05-02T06:54:49;13.50;1.00
9410;DHT22;4744;52.576;13.568;2023-05-02T06:57:16;13.50;1.00
9410;DHT22;4744;52.576;13.568;2023-05-02T06:59:43;13.50;1.00
9410;DHT22;4744;52.576;13.568;2023-05-02T07:02:10;13.50;1.00
9410;DHT22;4744;52.576;13.568;2023-05-02T07:04:36;13.50;1.00
9410;DHT22;4744;52.576;13.568;2023-05-02T07:07:05;13.50;1.00
9410;DHT22;4744;52.576;13.568;2023-05-02T07:09:32;13.60;1.00
9410;DHT22;4744;52.576;13.568;2023-05-02T07:11:58;13.70;1.00
9410;DHT22;4744;52.576;13.568;2023-05-02T07:14:27;13.80;1.00
9410;DHT22;4744;52.576;13.568;2023-05-02T07:16:53;13.90;1.00
9410;DHT22;4744;52.576;13.568;2023-05-02T07:19:20;13.90;1.00
9410;DHT22;4744;52.576;13.568;2023-05-02T07:21:47;13.90;1.00
9410;DHT22;4744;52.576;13.568;2023-05-02T07:24:15;13.90;1.00
9410;DHT22;4744;52.576;13.568;2023-05-02T07:26:42;13.90;1.00
9410;DHT22;4744;52.576;13.568;2023-05-02T07:29:09;13.80;1.00
9410;DHT22;4744;52.576;13.568;2023-05-02T07:31:36;13.70;1.00
9410;DHT22;4744;52.576;13.568;2023-05-02T07:34:03;13.80;1.00
9410;DHT22;4744;52.576;13.568;2023-05-02T07:36:30;13.90;1.00
9410;DHT22;4744;52.576;13.568;2023-05-02T07:38:57;14.10;1.00
9410;DHT22;4744;52.576;13.568;2023-05-02T07:41:25;14.30;1.00
9410;DHT22;4744;52.576;13.568;2023-05-02T07:43:52;14.60;1.00
9410;DHT22;4744;52.576;13.568;2023-05-02T07:46:20;14.80;1.00
9410;DHT22;4744;52.576;13.568;2023-05-02T07:48:47;15.00;1.00
9410;DHT22;4744;52.576;13.568;2023-05-02T07:51:14;15.10;1.00
9410;DHT22;4744;52.576;13.568;2023-05-02T07:53:41;15.20;1.00
9410;DHT22;4744;52.576;13.568;2023-05-02T07:56:07;15.40;1.00
9410;DHT22;4744;52.576;13.568;2023-05-02T07:58:36;15.50;1.00
9410;DHT22;4744;52.576;13.568;2023-05-02T08:01:03;15.30;1.00
9410;DHT22;4744;52.576;13.568;2023-05-02T08:03:30;15.30;1.00
9410;DHT22;4744;52.576;13.568;2023-05-02T08:05:57;15.20;1.00
9410;DHT22;4744;52.576;13.568;2023-05-02T08:08:23;15.30;1.00
9410;DHT22;4744;52.576;13.568;2023-05-02T08:10:50;15.30;1.00
9410;DHT22;4744;52.576;13.568;2023-05-02T08:13:17;15.20;1.00
9410;DHT22;4744;52.576;13.568;2023-05-02T08:15:46;15.10;1.00
9410;DHT22;4744;52.576;13.568;2023-05-02T08:18:12;14.90;1.00
9410;DHT22;4744;52.576;13.568;2023-05-02T08:20:39;14.80;1.00
9410;DHT22;4744;52.576;13.568;2023-05-02T08:23:06;14.70;1.00
9410;DHT22;4744;52.576;13.568;2023-05-02T08:25:33;14.70;1.00
9410;DHT22;4744;52.576;13.568;2023-05-02T08:28:00;14.90;1.00
9410;DHT22;4744;52.576;13.568;2023-05-02T08:30:27;15.00;1.00
9410;DHT22;4744;52.576;13.568;2023-05-02T08:32:55;15.00;1.00
9410;DHT22;4744;52.576;13.568;2023-05-02T08:35:22;15.00;1.00
9410;DHT22;4744;52.576;13.568;2023-05-02T08:37:49;15.10;1.00
9410;DHT22;4744;52.576;13.568;2023-05-02T08:40:16;15.00;1.00
9410;DHT22;4744;52.576;13.568;2023-05-02T08:42:43;15.00;1.00
9410;DHT22;4744;52.576;13.568;2023-05-02T08:45:12;14.90;1.00
9410;DHT22;4744;52.576;13.568;2023-05-02T08:47:40;14.70;1.00
9410;DHT22;4744;52.576;13.568;2023-05-02T08:50:09;14.70;1.00
9410;DHT22;4744;52.576;13.568;2023-05-02T08:52:37;14.60;1.00
9410;DHT22;4744;52.576;13.568;2023-05-02T08:55:06;14.60;1.00
9410;DHT22;4744;52.576;13.568;2023-05-02T08:57:33;14.40;1.00
9410;DHT22;4744;52.576;13.568;2023-05-02T08:59:59;14.30;1.00
9410;DHT22;4744;52.576;13.568;2023-05-02T09:02:48;14.20;1.00
9410;DHT22;4744;52.576;13.568;2023-05-02T09:05:20;14.20;1.00
9410;DHT22;4744;52.576;13.568;2023-05-02T09:07:50;14.20;1.00
9410;DHT22;4744;52.576;13.568;2023-05-02T09:10:17;14.20;1.00
9410;DHT22;4744;52.576;13.568;2023-05-02T09:12:44;14.20;1.00
9410;DHT22;4744;52.576;13.568;2023-05-02T09:15:12;14.20;1.00
9410;DHT22;4744;52.576;13.568;2023-05-02T09:17:40;14.20;1.00
9410;DHT22;4744;52.576;13.568;2023-05-02T09:20:09;14.30;1.00
9410;DHT22;4744;52.576;13.568;2023-05-02T09:22:38;14.30;1.00
9410;DHT22;4744;52.576;13.568;2023-05-02T09:25:06;14.40;1.00
9410;DHT22;4744;52.576;13.568;2023-05-02T09:27:51;14.40;1.00
9410;DHT22;4744;52.576;13.568;2023-05-02T09:30:20;14.60;1.00
9410;DHT22;4744;52.576;13.568;2023-05-02T09:32:48;14.70;1.00
9410;DHT22;4744;52.576;13.568;2023-05-02T09:35:16;14.90;1.00
9410;DHT22;4744;52.576;13.568;2023-05-02T09:37:50;15.20;1.00
9410;DHT22;4744;52.576;13.568;2023-05-02T09:40:18;15.50;1.00
9410;DHT22;4744;52.576;13.568;2023-05-02T09:42:45;15.50;1.00
9410;DHT22;4744;52.576;13.568;2023-05-02T09:45:20;15.20;1.00
9410;DHT22;4744;52.576;13.568;2023-05-02T09:47:47;14.90;1.00
9410;DHT22;4744;52.576;13.568;2023-05-02T09:50:31;14.80;1.00
9410;DHT22;4744;52.576;13.568;2023-05-02T09:53:05;14.80;1.00
9410;DHT22;4744;52.576;13.568;2023-05-02T09:55:32;14.80;1.00
9410;DHT22;4744;52.576;13.568;2023-05-02T09:57:59;15.00;1.00
9410;DHT22;4744;52.576;13.568;2023-05-02T10:00:43;15.00;1.00
9410;DHT22;4744;52.576;13.568;2023-05-02T10:03:11;15.00;1.00
9410;DHT22;4744;52.576;13.568;2023-05-02T10:05:41;14.90;1.00
9410;DHT22;4744;52.576;13.568;2023-05-02T10:08:11;14.90;1.00
9410;DHT22;4744;52.576;13.568;2023-05-02T10:10:39;14.90;1.00
9410;DHT22;4744;52.576;13.568;2023-05-02T10:13:07;15.30;1.00
9410;DHT22;4744;52.576;13.568;2023-05-02T10:15:39;15.70;1.00
9410;DHT22;4744;52.576;13.568;2023-05-02T10:18:11;16.00;1.00
9410;DHT22;4744;52.576;13.568;2023-05-02T10:20:42;16.00;1.00
9410;DHT22;4744;52.576;13.568;2023-05-02T10:23:12;16.30;1.00
9410;DHT22;4744;52.576;13.568;2023-05-02T10:25:40;16.60;1.00
9410;DHT22;4744;52.576;13.568;2023-05-02T10:28:09;16.70;1.00
9410;DHT22;4744;52.576;13.568;2023-05-02T10:30:38;16.50;1.00
9410;DHT22;4744;52.576;13.568;2023-05-02T10:33:06;16.20;1.00
9410;DHT22;4744;52.576;13.568;2023-05-02T10:35:34;15.70;1.00
9410;DHT22;4744;52.576;13.568;2023-05-02T10:38:02;15.50;1.00
9410;DHT22;4744;52.576;13.568;2023-05-02T10:40:31;15.40;1.00
9410;DHT22;4744;52.576;13.568;2023-05-02T10:42:58;15.30;1.00
9410;DHT22;4744;52.576;13.568;2023-05-02T10:45:32;15.30;1.00
9410;DHT22;4744;52.576;13.568;2023-05-02T10:48:14;15.30;1.00
9410;DHT22;4744;52.576;13.568;2023-05-02T10:50:46;15.40;1.00
9410;DHT22;4744;52.576;13.568;2023-05-02T10:53:28;15.40;1.00
9410;DHT22;4744;52.576;13.568;2023-05-02T10:56:17;15.00;1.00
9410;DHT22;4744;52.576;13.568;2023-05-02T10:58:46;14.70;1.00
9410;DHT22;4744;52.576;13.568;2023-05-02T11:01:33;14.40;1.00
9410;DHT22;4744;52.576;13.568;2023-05-02T11:04:03;14.20;1.00
9410;DHT22;4744;52.576;13.568;2023-05-02T11:06:31;14.00;1.00
9410;DHT22;4744;52.576;13.568;2023-05-02T11:09:33;13.80;1.00
9410;DHT22;4744;52.576;13.568;2023-05-02T11:12:02;13.60;1.00
9410;DHT22;4744;52.576;13.568;2023-05-02T11:14:48;13.60;1.00
9410;DHT22;4744;52.576;13.568;2023-05-02T11:17:16;13.50;1.00
9410;DHT22;4744;52.576;13.568;2023-05-02T11:20:17;13.40;1.00
9410;DHT22;4744;52.576;13.568;2023-05-02T11:22:45;13.30;1.00
9410;DHT22;4744;52.576;13.568;2023-05-02T11:25:36;13.10;1.00
9410;DHT22;4744;52.576;13.568;2023-05-02T11:28:06;13.00;1.00
9410;DHT22;4744;52.576;13.568;2023-05-02T11:30:38;12.80;1.00
9410;DHT22;4744;52.576;13.568;2023-05-02T11:33:16;12.70;1.00
9410;DHT22;4744;52.576;13.568;2023-05-02T11:35:45;12.70;1.00
9410;DHT22;4744;52.576;13.568;2023-05-02T11:38:23;12.70;1.00
9410;DHT22;4744;52.576;13.568;2023-05-02T11:40:52;12.70;1.00
9410;DHT22;4744;52.576;13.568;2023-05-02T11:43:21;12.60;1.00
9410;DHT22;4744;52.576;13.568;2023-05-02T11:45:49;12.70;1.00
9410;DHT22;4744;52.576;13.568;2023-05-02T11:48:18;12.70;1.00
9410;DHT22;4744;52.576;13.568;2023-05-02T11:50:48;12.90;1.00
9410;DHT22;4744;52.576;13.568;2023-05-02T11:53:16;13.10;1.00
9410;DHT22;4744;52.576;13.568;2023-05-02T11:55:45;13.20;1.00
9410;DHT22;4744;52.576;13.568;2023-05-02T11:58:13;13.30;1.00
9410;DHT22;4744;52.576;13.568;2023-05-02T12:00:43;13.30;1.00
9410;DHT22;4744;52.576;13.568;2023-05-02T12:03:26;13.20;1.00
9410;DHT22;4744;52.576;13.568;2023-05-02T12:05:54;13.10;1.00
9410;DHT22;4744;52.576;13.568;2023-05-02T12:08:23;13.10;1.00
9410;DHT22;4744;52.576;13.568;2023-05-02T12:10:52;13.00;1.00
9410;DHT22;4744;52.576;13.568;2023-05-02T12:13:20;13.00;1.00
9410;DHT22;4744;52.576;13.568;2023-05-02T12:15:50;13.10;1.00
9410;DHT22;4744;52.576;13.568;2023-05-02T12:18:18;13.00;1.00
9410;DHT22;4744;52.576;13.568;2023-05-02T12:20:48;13.00;1.00
9410;DHT22;4744;52.576;13.568;2023-05-02T12:23:16;13.00;1.00
9410;DHT22;4744;52.576;13.568;2023-05-02T12:25:43;13.00;1.00
9410;DHT22;4744;52.576;13.568;2023-05-02T12:28:10;13.00;1.00
9410;DHT22;4744;52.576;13.568;2023-05-02T12:30:38;12.90;1.00
9410;DHT22;4744;52.576;13.568;2023-05-02T12:33:07;12.80;1.00
9410;DHT22;4744;52.576;13.568;2023-05-02T12:35:34;12.70;1.00
9410;DHT22;4744;52.576;13.568;2023-05-02T12:38:09;12.60;1.00
9410;DHT22;4744;52.576;13.568;2023-05-02T12:40:37;12.60;1.00
9410;DHT22;4744;52.576;13.568;2023-05-02T12:43:04;12.70;1.00
9410;DHT22;4744;52.576;13.568;2023-05-02T12:45:35;12.70;1.00
9410;DHT22;4744;52.576;13.568;2023-05-02T12:48:17;12.80;1.00
9410;DHT22;4744;52.576;13.568;2023-05-02T12:50:44;12.90;1.00
9410;DHT22;4744;52.576;13.568;2023-05-02T12:53:11;13.00;1.00
9410;DHT22;4744;52.576;13.568;2023-05-02T12:55:38;13.10;1.00
9410;DHT22;4744;52.576;13.568;2023-05-02T12:58:07;13.10;1.00
9410;DHT22;4744;52.576;13.568;2023-05-02T13:00:36;13.10;1.00
9410;DHT22;4744;52.576;13.568;2023-05-02T13:03:03;13.20;1.00
9410;DHT22;4744;52.576;13.568;2023-05-02T13:05:32;13.30;1.00
9410;DHT22;4744;52.576;13.568;2023-05-02T13:07:59;13.40;1.00
9410;DHT22;4744;52.576;13.568;2023-05-02T13:10:26;13.40;1.00
9410;DHT22;4744;52.576;13.568;2023-05-02T13:12:53;13.30;1.00
9410;DHT22;4744;52.576;13.568;2023-05-02T13:15:21;13.20;1.00
9410;DHT22;4744;52.576;13.568;2023-05-02T13:17:49;13.20;1.00
9410;DHT22;4744;52.576;13.568;2023-05-02T13:20:17;13.20;1.00
9410;DHT22;4744;52.576;13.568;2023-05-02T13:22:45;13.10;1.00
9410;DHT22;4744;52.576;13.568;2023-05-02T13:25:12;13.40;1.00
9410;DHT22;4744;52.576;13.568;2023-05-02T13:27:39;13.40;1.00
9410;DHT22;4744;52.576;13.568;2023-05-02T13:30:07;13.40;1.00
9410;DHT22;4744;52.576;13.568;2023-05-02T13:32:36;13.50;1.00
9410;DHT22;4744;52.576;13.568;2023-05-02T13:35:04;13.40;1.00
9410;DHT22;4744;52.576;13.568;2023-05-02T13:37:31;13.20;1.00
9410;DHT22;4744;52.576;13.568;2023-05-02T13:39:59;13.10;1.00
9410;DHT22;4744;52.576;13.568;2023-05-02T13:42:26;13.10;1.00
9410;DHT22;4744;52.576;13.568;2023-05-02T13:44:53;13.30;1.00
9410;DHT22;4744;52.576;13.568;2023-05-02T13:47:20;13.50;1.00
9410;DHT22;4744;52.576;13.568;2023-05-02T13:49:47;13.70;1.00
9410;DHT22;4744;52.576;13.568;2023-05-02T13:52:14;13.70;1.00
9410;DHT22;4744;52.576;13.568;2023-05-02T13:54:40;13.60;1.00
9410;DHT22;4744;52.576;13.568;2023-05-02T13:57:09;13.50;1.00
9410;DHT22;4744;52.576;13.568;2023-05-02T13:59:36;13.40;1.00
9410;DHT22;4744;52.576;13.568;2023-05-02T14:02:03;13.40;1.00
9410;DHT22;4744;52.576;13.568;2023-05-02T14:04:30;13.30;1.00
9410;DHT22;4744;52.576;13.568;2023-05-02T14:06:57;13.40;1.00
9410;DHT22;4744;52.576;13.568;2023-05-02T14:09:24;13.40;1.00
9410;DHT22;4744;52.576;13.568;2023-05-02T14:11:51;13.20;1.00
9410;DHT22;4744;52.576;13.568;2023-05-02T14:14:19;13.10;1.00
9410;DHT22;4744;52.576;13.568;2023-05-02T14:16:46;13.00;1.00
9410;DHT22;4744;52.576;13.568;2023-05-02T14:19:13;13.00;1.00
9410;DHT22;4744;52.576;13.568;2023-05-02T14:21:40;12.80;1.00
9410;DHT22;4744;52.576;13.568;2023-05-02T14:24:06;12.70;1.00
9410;DHT22;4744;52.576;13.568;2023-05-02T14:26:33;12.60;1.00
9410;DHT22;4744;52.576;13.568;2023-05-02T14:29:00;12.60;1.00
9410;DHT22;4744;52.576;13.568;2023-05-02T14:31:28;12.40;1.00
9410;DHT22;4744;52.576;13.568;2023-05-02T14:33:56;12.30;1.00
9410;DHT22;4744;52.576;13.568;2023-05-02T14:36:22;12.30;1.00
9410;DHT22;4744;52.576;13.568;2023-05-02T14:38:49;12.20;1.00
9410;DHT22;4744;52.576;13.568;2023-05-02T14:41:16;12.00;1.00
9410;DHT22;4744;52.576;13.568;2023-05-02T14:43:43;12.00;1.00
9410;DHT22;4744;52.576;13.568;2023-05-02T14:46:10;11.80;1.00
9410;DHT22;4744;52.576;13.568;2023-05-02T14:48:39;11.70;1.00
9410;DHT22;4744;52.576;13.568;2023-05-02T14:51:05;11.60;1.00
9410;DHT22;4744;52.576;13.568;2023-05-02T14:53:32;11.60;1.00
9410;DHT22;4744;52.576;13.568;2023-05-02T14:55:59;11.50;1.00
9410;DHT22;4744;52.576;13.568;2023-05-02T14:58:26;11.50;1.00
9410;DHT22;4744;52.576;13.568;2023-05-02T15:00:53;11.40;1.00
9410;DHT22;4744;52.576;13.568;2023-05-02T15:03:20;11.40;1.00
9410;DHT22;4744;52.576;13.568;2023-05-02T15:05:48;11.30;1.00
9410;DHT22;4744;52.576;13.568;2023-05-02T15:08:15;11.20;1.00
9410;DHT22;4744;52.576;13.568;2023-05-02T15:10:42;11.10;1.00
9410;DHT22;4744;52.576;13.568;2023-05-02T15:13:09;11.20;1.00
9410;DHT22;4744;52.576;13.568;2023-05-02T15:15:36;11.10;1.00
9410;DHT22;4744;52.576;13.568;2023-05-02T15:18:03;11.10;1.00
9410;DHT22;4744;52.576;13.568;2023-05-02T15:20:30;11.00;1.00
9410;DHT22;4744;52.576;13.568;2023-05-02T15:22:58;11.10;1.00
9410;DHT22;4744;52.576;13.568;2023-05-02T15:25:28;11.10;1.00
9410;DHT22;4744;52.576;13.568;2023-05-02T15:27:56;11.10;1.00
9410;DHT22;4744;52.576;13.568;2023-05-02T15:30:25;11.10;1.00
9410;DHT22;4744;52.576;13.568;2023-05-02T15:32:52;11.20;1.00
9410;DHT22;4744;52.576;13.568;2023-05-02T15:35:19;11.20;1.00
9410;DHT22;4744;52.576;13.568;2023-05-02T15:37:46;11.20;1.00
9410;DHT22;4744;52.576;13.568;2023-05-02T15:40:14;11.30;1.00
9410;DHT22;4744;52.576;13.568;2023-05-02T15:42:41;11.40;1.00
9410;DHT22;4744;52.576;13.568;2023-05-02T15:45:10;11.40;1.00
9410;DHT22;4744;52.576;13.568;2023-05-02T15:47:38;11.40;1.00
9410;DHT22;4744;52.576;13.568;2023-05-02T15:50:06;11.40;1.00
9410;DHT22;4744;52.576;13.568;2023-05-02T15:52:35;11.50;1.00
9410;DHT22;4744;52.576;13.568;2023-05-02T15:55:02;11.50;1.00
9410;DHT22;4744;52.576;13.568;2023-05-02T15:57:31;11.40;1.00
9410;DHT22;4744;52.576;13.568;2023-05-02T15:59:58;11.40;1.00
9410;DHT22;4744;52.576;13.568;2023-05-02T16:02:25;11.30;1.00
9410;DHT22;4744;52.576;13.568;2023-05-02T16:04:53;11.30;1.00
9410;DHT22;4744;52.576;13.568;2023-05-02T16:07:20;11.30;1.00
9410;DHT22;4744;52.576;13.568;2023-05-02T16:09:47;11.20;1.00
9410;DHT22;4744;52.576;13.568;2023-05-02T16:12:14;11.20;1.00